Asian Vision — D8CU — position and weather

sailwx.info

Track history (hours):
 
Tides and Currents Weather Stations Pressure Air Temp Water Temp Dewpoint Dewpoint Depression Visibility Wind Speed Wind Dir Waves Ship Positions

Asian Vision

Last reported at 2018-Jan-19 21:23 UTC. Time now 2018-Jan-20 08:55 UTC.
Position N 24°58' E 123°42'.

Length 200 m; draft 7.9 m.

Type: Cargo ship. MMSI: 441992000.

Date/timePositionNaut miles runAvg speedWind from/ knotsBaromVisibWave heightAir tempDewpointWater temp
2018-Jan-19 21:23N 24°58' E 123°42'615.8
2018-Jan-19 21:01N 24°52' E 123°39'816.4
2018-Jan-19 20:30N 24°45' E 123°36'815.8
2018-Jan-19 20:01N 24°38' E 123°32'815.6
2018-Jan-19 19:31N 24°32' E 123°27'815.1
2018-Jan-19 19:01N 24°26' E 123°22'816.0
2018-Jan-19 18:31N 24°19' E 123°16'816.0
2018-Jan-19 18:00N 24°12' E 123°12'815.3
2018-Jan-19 17:31N 24°06' E 123°07'815.7
2018-Jan-19 17:00N 23°60' E 123°02'816.0
2018-Jan-19 16:31N 23°53' E 122°57'815.7
2018-Jan-19 16:01N 23°47' E 122°51'10015.6
2018-Jan-19 09:38N 22°29' E 121°45'214.7
2018-Jan-19 09:29N 22°27' E 121°43'1714.1
2018-Jan-19 08:16N 22°14' E 121°31'515.4
2018-Jan-19 07:57N 22°11' E 121°27'815.2
2018-Jan-19 07:23N 22°04' E 121°21'614.5
2018-Jan-19 07:00N 22°00' E 121°17'  
Track history (hours):
 
Tides and Currents Weather Stations Pressure Air Temp Water Temp Dewpoint Dewpoint Depression Visibility Wind Speed Wind Dir Waves Ship Positions

Asian Vision

Last reported at 2018-Jan-19 21:23 UTC. Time now 2018-Jan-20 08:55 UTC.
Position N 24°58' E 123°42'.

Length 200 m; draft 7.9 m.

Type: Cargo ship. MMSI: 441992000.

Date/timePositionNaut miles runAvg speedWind from/ knotsBaromVisibWave heightAir tempDewpointWater temp
2018-Jan-19 21:23N 24°58' E 123°42'615.8
2018-Jan-19 21:01N 24°52' E 123°39'816.4
2018-Jan-19 20:30N 24°45' E 123°36'815.8
2018-Jan-19 20:01N 24°38' E 123°32'815.6
2018-Jan-19 19:31N 24°32' E 123°27'815.1
2018-Jan-19 19:01N 24°26' E 123°22'816.0
2018-Jan-19 18:31N 24°19' E 123°16'816.0
2018-Jan-19 18:00N 24°12' E 123°12'815.3
2018-Jan-19 17:31N 24°06' E 123°07'815.7
2018-Jan-19 17:00N 23°60' E 123°02'816.0
2018-Jan-19 16:31N 23°53' E 122°57'815.7
2018-Jan-19 16:01N 23°47' E 122°51'10015.6
2018-Jan-19 09:38N 22°29' E 121°45'214.7
2018-Jan-19 09:29N 22°27' E 121°43'1714.1
2018-Jan-19 08:16N 22°14' E 121°31'515.4
2018-Jan-19 07:57N 22°11' E 121°27'815.2
2018-Jan-19 07:23N 22°04' E 121°21'614.5
2018-Jan-19 07:00N 22°00' E 121°17'  

Dump ship's entire track history